createdAt,value
2022-09-20T00:00:08.018Z,98.84
2022-09-20T00:01:14.032Z,99.12
2022-09-20T00:02:17.395Z,99.03
2022-09-20T00:03:21.892Z,99.09
2022-09-20T00:04:25.528Z,99.07
2022-09-20T00:05:30.359Z,99.10
2022-09-20T00:06:34.264Z,99.43
2022-09-20T00:07:38.625Z,99.37
2022-09-20T00:08:42.567Z,99.11
2022-09-20T00:09:48.482Z,99.68
2022-09-20T00:10:53.455Z,99.65
2022-09-20T00:11:59.347Z,99.96
2022-09-20T00:13:02.795Z,99.89
2022-09-20T00:14:09.019Z,99.57
2022-09-20T00:15:12.408Z,100.00
2022-09-20T00:16:19.313Z,100.00
2022-09-20T00:17:22.865Z,99.93
2022-09-20T00:18:27.396Z,99.71
2022-09-20T00:19:30.665Z,99.74
2022-09-20T00:20:35.613Z,100.00
2022-09-20T00:21:39.350Z,99.80
2022-09-20T00:22:44.036Z,100.00
2022-09-20T00:23:47.592Z,99.81
2022-09-20T00:24:53.571Z,99.75
2022-09-20T00:25:57.917Z,100.00
2022-09-20T00:27:02.266Z,99.80
2022-09-20T00:28:06.219Z,99.53
2022-09-20T00:29:10.457Z,99.98
2022-09-20T00:30:14.204Z,100.00
2022-09-20T00:31:18.491Z,99.43
2022-09-20T00:32:21.699Z,99.67
2022-09-20T00:33:46.780Z,99.98
2022-09-20T00:35:08.687Z,99.84
2022-09-20T00:36:18.215Z,99.84
2022-09-20T00:37:22.484Z,100.00
2022-09-20T00:38:25.580Z,99.90
2022-09-20T00:39:29.902Z,99.94
2022-09-20T00:40:34.781Z,100.00
2022-09-20T00:41:39.109Z,100.00
2022-09-20T00:42:42.480Z,100.00
2022-09-20T00:43:47.657Z,100.00
2022-09-20T00:44:56.622Z,100.00
2022-09-20T00:46:01.110Z,100.00
2022-09-20T00:47:04.984Z,100.00
2022-09-20T00:48:13.613Z,99.96
2022-09-20T00:49:19.245Z,100.00
2022-09-20T00:50:33.427Z,99.93
2022-09-20T00:51:39.121Z,100.00
2022-09-20T00:52:46.037Z,99.86
2022-09-20T00:53:51.427Z,99.99
2022-09-20T00:54:56.448Z,99.88
2022-09-20T00:56:04.407Z,99.99
2022-09-20T00:57:08.918Z,100.00
2022-09-20T00:58:13.945Z,99.82
2022-09-20T00:59:19.456Z,100.00
2022-09-20T01:00:24.334Z,100.00
2022-09-20T01:01:28.060Z,100.00
2022-09-20T01:02:33.861Z,100.00
2022-09-20T01:03:39.567Z,100.00
2022-09-20T01:04:43.370Z,100.00
2022-09-20T01:05:48.294Z,100.00
2022-09-20T01:06:53.298Z,100.00
2022-09-20T01:07:58.465Z,100.00
2022-09-20T01:09:04.374Z,100.00
2022-09-20T01:10:09.131Z,100.00
2022-09-20T01:11:13.817Z,100.00
2022-09-20T01:12:20.494Z,100.00
2022-09-20T01:13:24.875Z,100.00
2022-09-20T01:14:28.143Z,100.00
2022-09-20T01:15:33.234Z,100.00
2022-09-20T01:16:37.325Z,100.00
2022-09-20T01:17:43.248Z,100.00
2022-09-20T01:18:47.118Z,100.00
2022-09-20T01:20:01.934Z,100.00
2022-09-20T01:21:07.403Z,100.00
2022-09-20T01:22:15.614Z,100.00
2022-09-20T01:23:31.414Z,100.00
2022-09-20T01:24:39.194Z,100.00
2022-09-20T01:26:16.319Z,100.00
2022-09-20T01:27:25.026Z,100.00
2022-09-20T01:28:30.294Z,100.00
2022-09-20T01:29:46.832Z,100.00
2022-09-20T01:30:58.076Z,100.00
2022-09-20T01:32:04.363Z,100.00
2022-09-20T01:33:11.206Z,100.00
2022-09-20T01:34:17.136Z,100.00
2022-09-20T01:35:21.727Z,100.00
2022-09-20T01:36:28.416Z,100.00
2022-09-20T01:37:38.461Z,100.00
2022-09-20T01:38:47.202Z,100.00
2022-09-20T01:39:55.908Z,100.00
2022-09-20T01:41:06.300Z,100.00
2022-09-20T01:42:11.756Z,100.00
2022-09-20T01:43:22.173Z,100.00
2022-09-20T01:44:32.726Z,100.00
2022-09-20T01:45:37.035Z,100.00
2022-09-20T01:46:43.676Z,100.00
2022-09-20T01:47:53.456Z,100.00
2022-09-20T01:49:06.241Z,100.00
2022-09-20T01:50:19.064Z,100.00
2022-09-20T01:52:01.759Z,100.00
2022-09-20T01:53:42.452Z,100.00
2022-09-20T01:55:24.697Z,100.00
2022-09-20T01:57:13.525Z,100.00
2022-09-20T01:59:23.230Z,100.00
2022-09-20T02:00:32.113Z,100.00
2022-09-20T02:02:12.199Z,100.00
2022-09-20T02:03:48.042Z,100.00
2022-09-20T02:05:29.468Z,100.00
2022-09-20T02:06:50.056Z,100.00
2022-09-20T02:08:11.475Z,100.00
2022-09-20T02:09:37.404Z,100.00
2022-09-20T02:11:05.706Z,100.00
2022-09-20T02:12:20.484Z,100.00
2022-09-20T02:13:31.328Z,100.00
2022-09-20T02:14:42.087Z,100.00
2022-09-20T02:16:15.524Z,100.00
2022-09-20T02:17:23.315Z,100.00
2022-09-20T02:18:39.914Z,100.00
2022-09-20T02:20:09.512Z,100.00
2022-09-20T02:21:20.026Z,100.00
2022-09-20T02:22:33.384Z,100.00
2022-09-20T02:23:44.465Z,100.00
2022-09-20T02:25:00.449Z,100.00
2022-09-20T02:26:19.865Z,100.00
2022-09-20T02:27:28.454Z,100.00
2022-09-20T02:28:44.948Z,100.00
2022-09-20T02:30:01.615Z,100.00
2022-09-20T02:31:12.179Z,100.00
2022-09-20T02:32:29.798Z,100.00
2022-09-20T02:33:59.944Z,100.00
2022-09-20T02:35:20.708Z,100.00
2022-09-20T02:36:35.596Z,100.00
2022-09-20T02:37:56.363Z,100.00
2022-09-20T02:39:04.960Z,100.00
2022-09-20T02:40:20.413Z,100.00
2022-09-20T02:41:48.753Z,100.00
2022-09-20T02:42:58.339Z,100.00
2022-09-20T02:44:10.696Z,100.00
2022-09-20T02:45:54.421Z,100.00
2022-09-20T02:47:43.706Z,100.00
2022-09-20T02:48:55.045Z,100.00
2022-09-20T02:50:08.227Z,100.00
2022-09-20T02:51:18.520Z,99.91
2022-09-20T02:52:30.021Z,99.74
2022-09-20T02:53:41.485Z,99.99
2022-09-20T02:54:54.864Z,99.84
2022-09-20T02:56:05.479Z,100.00
2022-09-20T02:57:17.455Z,99.98
2022-09-20T02:58:31.507Z,100.00
2022-09-20T02:59:42.055Z,100.00
2022-09-20T03:00:50.136Z,100.00
2022-09-20T03:02:08.355Z,99.92
2022-09-20T03:03:16.708Z,100.00
2022-09-20T03:04:30.749Z,100.00
2022-09-20T03:05:47.784Z,99.95
2022-09-20T03:06:57.267Z,100.00
2022-09-20T03:08:15.795Z,99.92
2022-09-20T03:09:27.893Z,100.00
2022-09-20T03:10:36.841Z,100.00
2022-09-20T03:11:45.712Z,100.00
2022-09-20T03:13:01.735Z,100.00
2022-09-20T03:14:15.162Z,100.00
2022-09-20T03:15:27.167Z,100.00
2022-09-20T03:16:37.705Z,99.99
2022-09-20T03:17:49.054Z,100.00
2022-09-20T03:19:00.389Z,100.00
2022-09-20T03:20:17.241Z,100.00
2022-09-20T03:21:30.225Z,99.94
2022-09-20T03:22:43.218Z,99.48
2022-09-20T03:23:55.341Z,99.59
2022-09-20T03:25:16.077Z,100.00
2022-09-20T03:26:32.255Z,99.70
2022-09-20T03:27:43.058Z,99.92
2022-09-20T03:29:06.352Z,100.00
2022-09-20T03:30:29.268Z,99.78
2022-09-20T03:31:47.120Z,99.74
2022-09-20T03:32:59.759Z,99.75
2022-09-20T03:34:15.477Z,99.85
2022-09-20T03:35:30.300Z,99.96
2022-09-20T03:36:48.786Z,99.56
2022-09-20T03:38:03.580Z,99.96
2022-09-20T03:39:47.276Z,99.63
2022-09-20T03:41:24.145Z,99.79
2022-09-20T03:42:30.239Z,99.90
2022-09-20T03:43:45.098Z,99.75
2022-09-20T03:45:26.522Z,99.56
2022-09-20T03:46:31.226Z,99.99
2022-09-20T03:47:50.626Z,99.92
2022-09-20T03:49:29.639Z,99.71
2022-09-20T03:50:45.873Z,100.00
2022-09-20T03:51:59.203Z,99.96
2022-09-20T03:53:25.557Z,100.00
2022-09-20T03:54:53.215Z,100.00
2022-09-20T03:56:30.153Z,100.00
2022-09-20T03:57:46.490Z,99.74
2022-09-20T03:59:01.255Z,100.00
2022-09-20T04:00:12.600Z,100.00
2022-09-20T04:01:36.575Z,100.00
2022-09-20T04:03:12.631Z,100.00
2022-09-20T04:04:23.616Z,100.00
2022-09-20T04:05:35.700Z,100.00
2022-09-20T04:06:51.274Z,100.00
2022-09-20T04:08:01.640Z,100.00
2022-09-20T04:09:30.414Z,100.00
2022-09-20T04:10:45.673Z,100.00
2022-09-20T04:11:55.705Z,100.00
2022-09-20T04:13:13.263Z,100.00
2022-09-20T04:14:21.286Z,100.00
2022-09-20T04:15:33.353Z,100.00
2022-09-20T04:16:43.308Z,100.00
2022-09-20T04:17:52.948Z,100.00
2022-09-20T04:18:59.559Z,100.00
2022-09-20T04:20:06.566Z,100.00
2022-09-20T04:21:15.852Z,100.00
2022-09-20T04:22:21.867Z,100.00
2022-09-20T04:23:38.111Z,100.00
2022-09-20T04:24:46.313Z,100.00
2022-09-20T04:25:51.741Z,100.00
2022-09-20T04:27:00.445Z,100.00
2022-09-20T04:28:06.653Z,100.00
2022-09-20T04:29:21.623Z,100.00
2022-09-20T04:30:30.445Z,100.00
2022-09-20T04:31:37.781Z,100.00
2022-09-20T04:32:44.554Z,100.00
2022-09-20T04:33:51.036Z,100.00
2022-09-20T04:35:18.853Z,100.00
2022-09-20T04:36:39.361Z,100.00
2022-09-20T04:37:44.516Z,100.00
2022-09-20T04:38:54.900Z,100.00
2022-09-20T04:40:04.802Z,100.00
2022-09-20T04:41:23.016Z,100.00
2022-09-20T04:43:20.380Z,100.00
2022-09-20T04:44:56.219Z,100.00
2022-09-20T04:46:29.079Z,100.00
2022-09-20T04:48:09.334Z,100.00
2022-09-20T04:49:32.679Z,100.00
2022-09-20T04:51:20.070Z,100.00
2022-09-20T04:53:02.545Z,100.00
2022-09-20T04:54:36.612Z,100.00
2022-09-20T04:55:53.107Z,100.00
2022-09-20T04:57:23.605Z,100.00
2022-09-20T04:58:42.421Z,100.00
2022-09-20T05:00:00.060Z,100.00
2022-09-20T05:01:42.745Z,100.00
2022-09-20T05:03:20.785Z,100.00
2022-09-20T05:05:02.060Z,100.00
2022-09-20T05:06:27.841Z,100.00
2022-09-20T05:08:14.523Z,100.00
2022-09-20T05:09:44.636Z,100.00
2022-09-20T05:11:13.762Z,100.00
2022-09-20T05:12:37.443Z,100.00
2022-09-20T05:13:53.124Z,100.00
2022-09-20T05:15:12.658Z,100.00
2022-09-20T05:16:22.610Z,100.00
2022-09-20T05:17:38.531Z,100.00
2022-09-20T05:19:07.652Z,100.00
2022-09-20T05:20:25.773Z,100.00
2022-09-20T05:22:00.223Z,100.00
2022-09-20T05:23:37.622Z,100.00
2022-09-20T05:25:08.009Z,100.00
2022-09-20T05:26:14.385Z,100.00
2022-09-20T05:27:29.401Z,100.00
2022-09-20T05:28:38.678Z,100.00
2022-09-20T05:29:51.153Z,100.00
2022-09-20T05:30:57.839Z,100.00
2022-09-20T05:32:06.473Z,100.00
2022-09-20T05:33:20.636Z,100.00
2022-09-20T05:34:35.213Z,100.00
2022-09-20T05:35:43.550Z,100.00
2022-09-20T05:36:56.491Z,100.00
2022-09-20T05:38:05.814Z,100.00
2022-09-20T05:39:23.028Z,100.00
2022-09-20T05:40:33.340Z,100.00
2022-09-20T05:41:43.017Z,100.00
2022-09-20T05:42:54.193Z,100.00
2022-09-20T05:44:06.059Z,100.00
2022-09-20T05:45:24.053Z,100.00
2022-09-20T05:46:35.768Z,100.00
2022-09-20T05:47:45.284Z,100.00
2022-09-20T05:48:57.737Z,100.00
2022-09-20T05:50:11.359Z,100.00
2022-09-20T05:51:24.171Z,100.00
2022-09-20T05:52:38.731Z,100.00
2022-09-20T05:54:14.284Z,100.00
2022-09-20T05:55:36.825Z,100.00
2022-09-20T05:56:50.198Z,100.00
2022-09-20T05:58:05.140Z,99.96
2022-09-20T05:59:26.083Z,100.00
2022-09-20T06:00:33.213Z,100.00
2022-09-20T06:01:41.974Z,100.00
2022-09-20T06:02:54.242Z,99.83
2022-09-20T06:04:08.411Z,99.67
2022-09-20T06:05:16.473Z,99.68
2022-09-20T06:06:23.859Z,100.00
2022-09-20T06:07:34.529Z,99.96
2022-09-20T06:09:05.426Z,100.00
2022-09-20T06:10:31.242Z,99.35
2022-09-20T06:11:56.601Z,99.46
2022-09-20T06:13:09.089Z,99.71
2022-09-20T06:14:22.234Z,99.27
2022-09-20T06:15:28.514Z,99.15
2022-09-20T06:16:43.605Z,99.13
2022-09-20T06:17:54.784Z,99.69
2022-09-20T06:19:06.402Z,99.37
2022-09-20T06:20:18.830Z,100.00
2022-09-20T06:21:31.491Z,99.85
2022-09-20T06:22:39.553Z,98.84
2022-09-20T06:23:44.132Z,98.54
2022-09-20T06:24:49.766Z,99.45
2022-09-20T06:25:57.514Z,98.92
2022-09-20T06:27:04.651Z,98.60
2022-09-20T06:28:14.912Z,98.34
2022-09-20T06:29:22.680Z,99.01
2022-09-20T06:30:30.666Z,98.83
2022-09-20T06:31:34.954Z,98.98
2022-09-20T06:32:53.762Z,98.85
2022-09-20T06:34:02.322Z,98.67
2022-09-20T06:35:06.207Z,98.70
2022-09-20T06:36:39.262Z,98.55
2022-09-20T06:38:03.488Z,99.18
2022-09-20T06:39:30.134Z,98.61
2022-09-20T06:40:58.018Z,98.28
2022-09-20T06:42:03.732Z,98.34
2022-09-20T06:43:06.954Z,98.10
2022-09-20T06:44:11.162Z,97.81
2022-09-20T06:45:15.432Z,97.77
2022-09-20T06:46:18.583Z,97.81
2022-09-20T06:47:23.565Z,97.49
2022-09-20T06:48:32.231Z,97.71
2022-09-20T06:49:36.748Z,97.53
2022-09-20T06:50:39.882Z,97.19
2022-09-20T06:51:44.113Z,97.07
2022-09-20T06:52:48.584Z,97.12
2022-09-20T06:53:52.819Z,96.71
2022-09-20T06:54:57.801Z,96.54
2022-09-20T06:56:01.742Z,96.70
2022-09-20T06:57:07.753Z,96.28
2022-09-20T06:58:11.260Z,96.84
2022-09-20T06:59:15.732Z,96.04
2022-09-20T07:00:19.826Z,96.78
2022-09-20T07:01:30.069Z,96.39
2022-09-20T07:02:34.871Z,96.42
2022-09-20T07:03:39.046Z,95.89
2022-09-20T07:04:43.879Z,96.04
2022-09-20T07:05:47.201Z,95.39
2022-09-20T07:06:51.350Z,95.79
2022-09-20T07:07:57.933Z,95.48
2022-09-20T07:09:02.239Z,95.30
2022-09-20T07:10:07.054Z,95.08
2022-09-20T07:11:15.214Z,94.87
2022-09-20T07:12:19.822Z,95.10
2022-09-20T07:13:24.316Z,95.17
2022-09-20T07:14:29.036Z,95.20
2022-09-20T07:15:33.521Z,94.92
2022-09-20T07:16:37.887Z,94.50
2022-09-20T07:17:40.863Z,94.46
2022-09-20T07:18:45.170Z,95.23
2022-09-20T07:19:49.318Z,94.25
2022-09-20T07:20:52.546Z,94.39
2022-09-20T07:21:57.042Z,94.42
2022-09-20T07:23:01.334Z,94.48
2022-09-20T07:24:04.770Z,94.27
2022-09-20T07:25:09.994Z,93.71
2022-09-20T07:26:18.516Z,93.57
2022-09-20T07:27:28.633Z,92.48
2022-09-20T07:28:33.873Z,93.18
2022-09-20T07:29:38.255Z,92.58
2022-09-20T07:30:43.207Z,92.58
2022-09-20T07:31:46.466Z,91.74
2022-09-20T07:32:50.668Z,91.85
2022-09-20T07:33:53.799Z,91.68
2022-09-20T07:34:58.002Z,91.14
2022-09-20T07:36:01.125Z,91.17
2022-09-20T07:37:05.809Z,91.47
2022-09-20T07:38:08.988Z,91.44
2022-09-20T07:39:13.172Z,89.75
2022-09-20T07:40:17.599Z,90.17
2022-09-20T07:41:23.187Z,90.75
2022-09-20T07:42:29.953Z,90.54
2022-09-20T07:43:34.333Z,89.86
2022-09-20T07:44:37.394Z,89.47
2022-09-20T07:45:42.075Z,89.54
2022-09-20T07:46:48.858Z,89.56
2022-09-20T07:47:53.812Z,89.94
2022-09-20T07:48:56.830Z,89.76
2022-09-20T07:50:01.142Z,90.38
2022-09-20T07:51:08.998Z,89.97
2022-09-20T07:52:14.919Z,89.46
2022-09-20T07:53:18.021Z,90.10
2022-09-20T07:54:22.252Z,89.90
2022-09-20T07:55:25.652Z,89.91
2022-09-20T07:56:29.863Z,89.67
2022-09-20T07:57:38.595Z,88.50
2022-09-20T07:58:43.382Z,88.47
2022-09-20T07:59:46.590Z,88.47
2022-09-20T08:00:55.110Z,88.92
2022-09-20T08:02:00.878Z,89.38
2022-09-20T08:03:06.260Z,88.85
2022-09-20T08:04:11.432Z,89.00
2022-09-20T08:05:14.399Z,87.97
2022-09-20T08:06:19.014Z,87.94
2022-09-20T08:07:23.282Z,87.90
2022-09-20T08:08:26.376Z,87.82
2022-09-20T08:09:30.679Z,88.18
2022-09-20T08:10:33.919Z,87.24
2022-09-20T08:11:39.771Z,87.13
2022-09-20T08:14:11.429Z,87.55
2022-09-20T08:15:34.237Z,87.39
2022-09-20T08:16:43.751Z,88.38
2022-09-20T08:17:49.835Z,88.72
2022-09-20T08:18:55.893Z,87.73
2022-09-20T08:20:01.028Z,88.13
2022-09-20T08:21:06.789Z,88.27
2022-09-20T08:22:12.831Z,88.59
2022-09-20T08:23:23.528Z,89.05
2022-09-20T08:24:28.493Z,89.03
2022-09-20T08:25:31.884Z,88.96
2022-09-20T08:26:36.753Z,89.00
2022-09-20T08:27:41.142Z,89.81
2022-09-20T08:28:46.471Z,89.78
2022-09-20T08:29:55.728Z,89.50
2022-09-20T08:31:03.113Z,89.51
2022-09-20T08:32:07.655Z,89.57
2022-09-20T08:33:11.834Z,89.81
2022-09-20T08:34:18.740Z,90.68
2022-09-20T08:35:25.793Z,90.34
2022-09-20T08:36:35.909Z,90.13
2022-09-20T08:37:41.432Z,90.21
2022-09-20T08:40:11.575Z,89.97
2022-09-20T08:41:18.571Z,90.11
2022-09-20T08:42:33.944Z,89.81
2022-09-20T08:43:45.638Z,89.75
2022-09-20T08:45:00.962Z,90.41
2022-09-20T08:46:07.229Z,90.39
2022-09-20T08:47:24.119Z,89.64
2022-09-20T08:48:33.654Z,89.91
2022-09-20T08:49:37.641Z,89.75
2022-09-20T08:51:07.024Z,89.99
2022-09-20T08:52:41.781Z,90.52
2022-09-20T08:53:53.805Z,90.51
2022-09-20T08:55:13.796Z,90.89
2022-09-20T08:57:58.321Z,91.14
2022-09-20T08:59:20.201Z,91.66
2022-09-20T09:00:27.603Z,91.28
2022-09-20T09:01:32.655Z,90.93
2022-09-20T09:02:41.895Z,90.56
2022-09-20T09:03:46.381Z,90.25
2022-09-20T09:04:51.780Z,90.13
2022-09-20T09:05:58.397Z,89.88
2022-09-20T09:07:02.919Z,89.48
2022-09-20T09:08:16.665Z,89.28
2022-09-20T09:09:23.590Z,89.38
2022-09-20T09:10:42.571Z,89.53
2022-09-20T09:11:48.161Z,88.85
2022-09-20T09:12:52.311Z,88.38
2022-09-20T09:14:02.840Z,88.43
2022-09-20T09:15:21.826Z,88.73
2022-09-20T09:16:35.330Z,88.12
2022-09-20T09:17:40.339Z,88.06
2022-09-20T09:18:45.861Z,87.76
2022-09-20T09:19:52.381Z,87.02
2022-09-20T09:20:55.910Z,86.91
2022-09-20T09:22:01.765Z,86.54
2022-09-20T09:23:09.292Z,86.61
2022-09-20T09:24:18.665Z,86.68
2022-09-20T09:25:29.000Z,86.78
2022-09-20T09:26:38.393Z,87.25
2022-09-20T09:27:51.312Z,86.81
2022-09-20T09:29:16.182Z,86.86
2022-09-20T09:30:26.529Z,86.56
2022-09-20T09:31:31.377Z,86.42
2022-09-20T09:32:37.809Z,86.24
2022-09-20T09:33:45.500Z,86.03
2022-09-20T09:34:49.750Z,86.09
2022-09-20T09:35:59.384Z,86.86
2022-09-20T09:37:02.629Z,86.70
2022-09-20T09:38:06.869Z,86.70
2022-09-20T09:39:22.564Z,86.13
2022-09-20T09:40:26.972Z,86.52
2022-09-20T09:41:33.512Z,86.88
2022-09-20T09:42:36.700Z,86.61
2022-09-20T09:43:41.373Z,87.25
2022-09-20T09:44:44.888Z,86.76
2022-09-20T09:45:49.423Z,86.62
2022-09-20T09:46:54.609Z,87.04
2022-09-20T09:48:00.910Z,87.00
2022-09-20T09:49:20.428Z,86.53
2022-09-20T09:50:25.511Z,86.32
2022-09-20T09:51:30.118Z,86.88
2022-09-20T09:52:35.734Z,86.80
2022-09-20T09:53:50.592Z,86.99
2022-09-20T09:55:02.883Z,86.87
2022-09-20T09:56:28.493Z,86.25
2022-09-20T09:57:46.520Z,86.96
2022-09-20T09:59:01.555Z,86.99
2022-09-20T10:00:17.825Z,87.00
2022-09-20T10:01:33.334Z,87.31
2022-09-20T10:02:51.791Z,88.01
2022-09-20T10:03:59.555Z,87.78
2022-09-20T10:05:06.271Z,88.07
2022-09-20T10:06:20.557Z,88.63
2022-09-20T10:07:29.520Z,88.18
2022-09-20T10:08:39.412Z,89.01
2022-09-20T10:10:00.492Z,89.19
2022-09-20T10:11:11.123Z,89.28
2022-09-20T10:12:26.449Z,89.72
2022-09-20T10:13:40.311Z,89.26
2022-09-20T10:14:58.042Z,89.28
2022-09-20T10:16:07.438Z,88.49
2022-09-20T10:17:25.713Z,88.05
2022-09-20T10:18:40.039Z,88.53
2022-09-20T10:19:54.942Z,88.11
2022-09-20T10:21:08.307Z,88.36
2022-09-20T10:22:19.943Z,88.87
2022-09-20T10:24:02.073Z,89.64
2022-09-20T10:25:09.453Z,89.99
2022-09-20T10:26:24.770Z,90.58
2022-09-20T10:27:39.980Z,90.77
2022-09-20T10:28:54.491Z,90.59
2022-09-20T10:30:05.416Z,91.07
2022-09-20T10:31:14.272Z,91.41
2022-09-20T10:32:27.727Z,91.96
2022-09-20T10:33:38.351Z,92.50
2022-09-20T10:35:05.201Z,93.18
2022-09-20T10:36:17.126Z,94.38
2022-09-20T10:37:27.796Z,95.22
2022-09-20T10:38:33.963Z,94.42
2022-09-20T10:39:38.781Z,93.45
2022-09-20T10:41:13.868Z,91.56
2022-09-20T10:42:44.691Z,88.62
2022-09-20T10:44:04.283Z,87.77
2022-09-20T10:45:34.909Z,87.02
2022-09-20T10:46:53.333Z,86.89
2022-09-20T10:48:04.410Z,88.28
2022-09-20T10:49:23.914Z,87.62
2022-09-20T10:50:34.821Z,87.51
2022-09-20T10:51:45.289Z,86.51
2022-09-20T10:53:00.070Z,85.98
2022-09-20T10:54:12.000Z,85.89
2022-09-20T10:55:26.363Z,85.80
2022-09-20T10:56:34.112Z,85.68
2022-09-20T10:57:54.061Z,83.21
2022-09-20T10:59:22.672Z,82.38
2022-09-20T11:00:29.094Z,82.92
2022-09-20T11:01:37.308Z,81.95
2022-09-20T11:02:47.894Z,80.58
2022-09-20T11:04:08.609Z,79.93
2022-09-20T11:05:30.019Z,78.77
2022-09-20T11:06:44.522Z,79.83
2022-09-20T11:07:56.529Z,77.98
2022-09-20T11:09:01.860Z,77.94
2022-09-20T11:10:12.673Z,77.80
2022-09-20T11:11:20.912Z,76.73
2022-09-20T11:12:27.837Z,76.51
2022-09-20T11:13:35.586Z,75.90
2022-09-20T11:14:43.444Z,77.25
2022-09-20T11:15:50.688Z,77.68
2022-09-20T11:16:59.828Z,76.69
2022-09-20T11:18:08.256Z,74.92
2022-09-20T11:19:23.690Z,73.82
2022-09-20T11:20:30.786Z,73.93
2022-09-20T11:21:38.590Z,74.32
2022-09-20T11:22:45.240Z,75.30
2022-09-20T11:23:53.529Z,76.33
2022-09-20T11:25:01.061Z,77.20
2022-09-20T11:26:10.534Z,78.69
2022-09-20T11:27:18.673Z,79.78
2022-09-20T11:28:26.531Z,80.75
2022-09-20T11:29:36.188Z,81.47
2022-09-20T11:30:52.123Z,81.65
2022-09-20T11:31:59.398Z,82.19
2022-09-20T11:33:06.967Z,82.37
2022-09-20T11:34:16.033Z,83.18
2022-09-20T11:35:29.931Z,83.58
2022-09-20T11:36:38.627Z,84.47
2022-09-20T11:37:46.379Z,84.22
2022-09-20T11:38:53.511Z,84.26
2022-09-20T11:40:23.488Z,84.68
2022-09-20T11:41:35.351Z,86.40
2022-09-20T11:42:40.992Z,87.09
2022-09-20T11:43:46.202Z,87.65
2022-09-20T11:44:51.280Z,87.68
2022-09-20T11:45:57.433Z,88.06
2022-09-20T11:47:11.780Z,87.63
2022-09-20T11:48:18.376Z,86.00
2022-09-20T11:49:25.480Z,86.06
2022-09-20T11:51:02.371Z,83.42
2022-09-20T11:52:28.907Z,77.65
2022-09-20T11:53:44.744Z,80.68
2022-09-20T11:55:06.187Z,80.55
2022-09-20T11:56:16.392Z,80.96
2022-09-20T11:57:19.454Z,80.75
2022-09-20T11:58:23.618Z,80.36
2022-09-20T11:59:30.528Z,78.64
2022-09-20T12:00:38.816Z,76.70
2022-09-20T12:01:43.556Z,75.32
2022-09-20T12:02:50.299Z,75.21
2022-09-20T12:04:14.266Z,75.24
2022-09-20T12:05:38.326Z,73.99
2022-09-20T12:06:43.081Z,74.60
2022-09-20T12:07:47.378Z,74.93
2022-09-20T12:08:52.906Z,75.50
2022-09-20T12:09:57.509Z,75.04
2022-09-20T12:11:04.823Z,74.17
2022-09-20T12:12:29.229Z,71.72
2022-09-20T12:13:36.851Z,72.92
2022-09-20T12:14:39.979Z,72.76
2022-09-20T12:15:44.396Z,71.57
2022-09-20T12:16:49.784Z,71.18
2022-09-20T12:18:24.325Z,70.01
2022-09-20T12:19:39.801Z,69.59
2022-09-20T12:21:15.919Z,65.08
2022-09-20T12:22:31.523Z,68.63
2022-09-20T12:24:10.449Z,67.26
2022-09-20T12:25:36.930Z,60.54
2022-09-20T12:26:48.211Z,65.74
2022-09-20T12:27:58.442Z,65.50
2022-09-20T12:29:02.762Z,64.50
2022-09-20T12:30:17.695Z,63.69
2022-09-20T12:31:40.103Z,62.07
2022-09-20T12:32:56.562Z,64.19
2022-09-20T12:34:02.120Z,65.42
2022-09-20T12:36:01.528Z,63.43
2022-09-20T12:37:23.321Z,64.99
2022-09-20T12:38:33.691Z,65.27
2022-09-20T12:39:39.326Z,65.56
2022-09-20T12:41:03.941Z,64.72
2022-09-20T12:42:28.401Z,65.29
2022-09-20T12:43:32.850Z,66.94
2022-09-20T12:44:38.647Z,66.99
2022-09-20T12:45:41.723Z,67.42
2022-09-20T12:46:53.445Z,67.96
2022-09-20T12:47:58.558Z,69.10
2022-09-20T12:49:42.072Z,69.29
2022-09-20T12:51:16.632Z,70.03
2022-09-20T12:52:48.109Z,70.58
2022-09-20T12:54:08.952Z,71.99
2022-09-20T12:55:13.222Z,72.55
2022-09-20T12:56:21.551Z,72.24
2022-09-20T12:57:32.704Z,71.90
2022-09-20T12:58:45.393Z,71.72
2022-09-20T12:59:57.879Z,71.83
2022-09-20T13:01:31.034Z,71.79
2022-09-20T13:02:58.002Z,71.69
2022-09-20T13:04:40.580Z,71.72
2022-09-20T13:05:46.409Z,71.81
2022-09-20T13:07:29.296Z,71.72
2022-09-20T13:08:34.440Z,71.90
2022-09-20T13:09:40.298Z,71.96
2022-09-20T13:10:51.411Z,71.88
2022-09-20T13:11:57.350Z,72.21
2022-09-20T13:13:19.197Z,72.27
2022-09-20T13:14:26.473Z,71.91
2022-09-20T13:15:30.233Z,72.13
2022-09-20T13:16:41.338Z,72.52
2022-09-20T13:17:44.880Z,74.05
2022-09-20T13:18:50.023Z,74.27
2022-09-20T13:19:55.332Z,73.46
2022-09-20T13:21:02.890Z,73.24
2022-09-20T13:22:10.332Z,71.86
2022-09-20T13:23:20.753Z,70.42
2022-09-20T13:24:27.353Z,69.91
2022-09-20T13:25:39.907Z,69.35
2022-09-20T13:26:47.663Z,67.91
2022-09-20T13:27:59.931Z,65.86
2022-09-20T13:29:05.004Z,64.59
2022-09-20T13:30:17.756Z,62.55
2022-09-20T13:31:29.686Z,61.95
2022-09-20T13:32:34.858Z,61.70
2022-09-20T13:33:40.719Z,62.30
2022-09-20T13:34:45.828Z,61.62
2022-09-20T13:35:51.560Z,61.48
2022-09-20T13:36:59.635Z,62.07
2022-09-20T13:38:07.132Z,61.75
2022-09-20T13:39:11.241Z,60.93
2022-09-20T13:40:19.408Z,59.26
2022-09-20T13:41:25.795Z,58.96
2022-09-20T13:42:31.778Z,57.84
2022-09-20T13:43:38.402Z,57.20
2022-09-20T13:44:44.276Z,56.63
2022-09-20T13:45:48.385Z,56.13
2022-09-20T13:46:52.795Z,56.21
2022-09-20T13:48:00.150Z,56.71
2022-09-20T13:49:21.040Z,56.69
2022-09-20T13:50:30.440Z,58.29
2022-09-20T13:51:35.092Z,59.28
2022-09-20T13:52:46.604Z,58.16
2022-09-20T13:53:49.854Z,57.55
2022-09-20T13:54:55.567Z,57.00
2022-09-20T13:56:00.493Z,57.44
2022-09-20T13:57:20.456Z,58.09
2022-09-20T13:58:27.773Z,58.10
2022-09-20T13:59:34.204Z,58.40
2022-09-20T14:00:39.402Z,58.84
2022-09-20T14:01:45.215Z,59.54
2022-09-20T14:02:50.823Z,59.99
2022-09-20T14:03:54.788Z,60.46
2022-09-20T14:05:01.638Z,59.75
2022-09-20T14:06:12.674Z,59.40
2022-09-20T14:07:16.883Z,59.87
2022-09-20T14:08:24.777Z,59.38
2022-09-20T14:09:31.194Z,59.45
2022-09-20T14:10:37.298Z,59.42
2022-09-20T14:11:42.031Z,59.16
2022-09-20T14:12:47.901Z,59.54
2022-09-20T14:13:54.399Z,59.64
2022-09-20T14:14:57.961Z,59.99
2022-09-20T14:16:02.472Z,60.43
2022-09-20T14:17:09.080Z,60.39
2022-09-20T14:18:16.781Z,61.20
2022-09-20T14:19:21.903Z,61.56
2022-09-20T14:20:27.082Z,62.28
2022-09-20T14:21:34.633Z,62.96
2022-09-20T14:22:38.796Z,62.87
2022-09-20T14:23:51.428Z,63.35
2022-09-20T14:25:01.634Z,64.20
2022-09-20T14:26:18.121Z,64.84
2022-09-20T14:27:23.434Z,65.29
2022-09-20T14:28:29.015Z,64.86
2022-09-20T14:29:41.429Z,65.05
2022-09-20T14:30:46.952Z,65.42
2022-09-20T14:31:53.387Z,65.75
2022-09-20T14:32:58.419Z,66.16
2022-09-20T14:34:03.742Z,66.37
2022-09-20T14:35:14.241Z,66.28
2022-09-20T14:36:20.652Z,66.45
2022-09-20T14:37:27.411Z,66.69
2022-09-20T14:38:33.300Z,66.87
2022-09-20T14:39:39.215Z,67.25
2022-09-20T14:40:47.438Z,67.64
2022-09-20T14:41:51.298Z,67.59
2022-09-20T14:42:57.681Z,67.90
2022-09-20T14:44:32.703Z,67.92
2022-09-20T14:46:21.352Z,68.06
2022-09-20T14:47:28.798Z,68.55
2022-09-20T14:48:54.001Z,68.54
2022-09-20T14:49:59.629Z,68.13
2022-09-20T14:51:25.600Z,67.61
2022-09-20T14:52:43.991Z,67.35
2022-09-20T14:53:49.835Z,67.34
2022-09-20T14:54:59.873Z,67.57
2022-09-20T14:56:11.693Z,68.11
2022-09-20T14:57:15.563Z,68.48
2022-09-20T14:58:20.177Z,68.97
2022-09-20T14:59:27.521Z,69.52
2022-09-20T15:00:32.396Z,69.65
2022-09-20T15:01:37.150Z,70.23
2022-09-20T15:02:42.886Z,70.45
2022-09-20T15:03:47.224Z,70.68
2022-09-20T15:04:54.575Z,71.27
2022-09-20T15:05:59.013Z,71.69
2022-09-20T15:07:03.731Z,72.11
2022-09-20T15:08:13.601Z,72.48
2022-09-20T15:09:17.944Z,72.85
2022-09-20T15:10:23.032Z,72.79
2022-09-20T15:11:29.645Z,73.04
2022-09-20T15:12:34.306Z,73.11
2022-09-20T15:13:39.654Z,73.51
2022-09-20T15:14:44.791Z,73.92
2022-09-20T15:15:51.751Z,74.32
2022-09-20T15:16:56.274Z,74.08
2022-09-20T15:18:01.138Z,74.06
2022-09-20T15:19:06.257Z,74.27
2022-09-20T15:20:17.888Z,74.77
2022-09-20T15:21:25.006Z,75.29